createdAt,value
2018-02-06T00:01:53.956Z,14.45
2018-02-06T00:04:20.402Z,14.18
2018-02-06T00:06:46.889Z,13.62
2018-02-06T00:09:14.179Z,12.80
2018-02-06T00:11:41.453Z,12.00
2018-02-06T00:24:56.202Z,9.93
2018-02-06T00:27:22.619Z,9.90
2018-02-06T00:29:49.107Z,9.18
2018-02-06T00:32:16.287Z,9.70
2018-02-06T00:34:42.716Z,8.20
2018-02-06T00:37:09.139Z,8.70
2018-02-06T00:39:35.686Z,8.90
2018-02-06T00:42:02.132Z,8.83
2018-02-06T00:44:29.406Z,8.10
2018-02-06T00:46:56.606Z,8.50
2018-02-06T00:49:23.142Z,8.65
2018-02-06T00:51:49.695Z,9.53
2018-02-06T00:54:16.871Z,9.50
2018-02-06T00:56:43.429Z,9.80
2018-02-06T00:59:10.601Z,9.40
2018-02-06T01:01:37.932Z,9.23
2018-02-06T01:04:04.364Z,9.00
2018-02-06T01:06:30.886Z,9.25
2018-02-06T01:08:58.168Z,9.32
2018-02-06T01:11:24.595Z,9.90
2018-02-06T01:13:51.073Z,10.10
2018-02-06T01:16:18.229Z,11.00
2018-02-06T01:18:44.701Z,11.68
2018-02-06T01:21:11.976Z,11.27
2018-02-06T01:23:39.250Z,11.55
2018-02-06T01:26:06.414Z,10.90
2018-02-06T01:28:33.696Z,11.82
2018-02-06T01:31:00.921Z,11.90
2018-02-06T01:33:31.006Z,11.27
2018-02-06T01:35:58.161Z,11.60
2018-02-06T01:38:24.601Z,12.10
2018-02-06T01:40:51.016Z,11.35
2018-02-06T01:43:17.462Z,11.73
2018-02-06T01:45:43.890Z,12.52
2018-02-06T01:48:11.062Z,12.10
2018-02-06T01:50:39.178Z,11.50
2018-02-06T01:53:05.614Z,11.77
2018-02-06T01:55:32.897Z,12.90
2018-02-06T01:58:00.089Z,12.85
2018-02-06T02:00:26.627Z,13.05
2018-02-06T02:02:53.817Z,13.20
2018-02-06T02:05:20.228Z,13.45
2018-02-06T02:07:46.654Z,14.15
2018-02-06T02:10:13.061Z,12.90
2018-02-06T02:12:39.522Z,13.35
2018-02-06T02:15:06.680Z,12.80
2018-02-06T02:17:33.851Z,13.10
2018-02-06T02:20:01.143Z,12.80
2018-02-06T02:22:28.305Z,13.38
2018-02-06T02:24:55.591Z,13.18
2018-02-06T02:27:22.043Z,13.30
2018-02-06T02:29:49.521Z,12.90
2018-02-06T02:32:16.730Z,13.57
2018-02-06T02:34:43.150Z,14.90
2018-02-06T02:37:10.334Z,13.80
2018-02-06T02:39:36.880Z,13.95
2018-02-06T04:39:18.039Z,14.00
2018-02-06T04:41:44.601Z,14.00
2018-02-06T04:44:11.872Z,14.18
2018-02-06T04:46:39.148Z,14.18
2018-02-06T04:49:05.711Z,14.00
2018-02-06T04:51:32.262Z,14.57
2018-02-06T04:53:59.540Z,14.00
2018-02-06T04:56:25.982Z,14.63
2018-02-06T04:58:53.179Z,14.40
2018-02-06T05:01:19.723Z,13.87
2018-02-06T05:03:46.871Z,13.57
2018-02-06T05:06:13.311Z,14.40
2018-02-06T05:08:39.746Z,13.40
2018-02-06T05:11:06.264Z,12.75
2018-02-06T05:13:33.418Z,12.35
2018-02-06T05:16:00.604Z,12.20
2018-02-06T05:18:31.769Z,12.30
2018-02-06T05:20:58.935Z,12.90
2018-02-06T05:23:26.087Z,12.37
2018-02-06T05:25:52.569Z,12.30
2018-02-06T05:28:19.845Z,12.43
2018-02-06T05:30:47.120Z,14.27
2018-02-06T05:33:15.007Z,13.57
2018-02-06T05:35:42.180Z,12.70
2018-02-06T05:38:09.452Z,13.15
2018-02-06T05:40:36.653Z,13.30
2018-02-06T05:43:03.285Z,14.13
2018-02-06T05:45:31.051Z,13.60
2018-02-06T05:47:57.470Z,23.83
2018-02-06T05:50:23.983Z,18.10
2018-02-06T05:52:50.440Z,16.37
2018-02-06T05:55:17.600Z,15.40
2018-02-06T05:57:44.752Z,14.63
2018-02-06T06:00:11.342Z,14.40
2018-02-06T06:02:37.930Z,14.40
2018-02-06T06:05:04.381Z,13.93
2018-02-06T06:07:30.915Z,14.40
2018-02-06T06:09:58.190Z,14.20
2018-02-06T06:12:24.627Z,14.13
2018-02-06T06:14:51.808Z,13.80
2018-02-06T06:17:18.996Z,14.40
2018-02-06T06:19:46.103Z,14.20
2018-02-06T06:22:12.564Z,13.62
2018-02-06T06:24:39.087Z,13.73
2018-02-06T06:27:05.633Z,14.80
2018-02-06T06:29:32.907Z,17.70
2018-02-06T06:32:00.185Z,17.40
2018-02-06T06:34:26.634Z,19.30
2018-02-06T06:36:53.890Z,19.42
2018-02-06T06:39:21.221Z,20.15
2018-02-06T06:41:48.768Z,18.48
2018-02-06T06:44:15.327Z,15.02
2018-02-06T06:46:42.601Z,15.60
2018-02-06T06:49:09.159Z,14.98
2018-02-06T06:51:36.433Z,15.10
2018-02-06T06:54:03.625Z,15.88
2018-02-06T06:56:30.166Z,18.83
2018-02-06T06:58:56.612Z,30.88
2018-02-06T07:01:23.894Z,29.30
2018-02-06T07:03:51.680Z,30.70
2018-02-06T07:06:19.093Z,31.80
2018-02-06T07:08:45.617Z,27.40
2018-02-06T07:11:12.799Z,43.08
2018-02-06T07:13:39.272Z,36.92
2018-02-06T07:16:05.802Z,34.80
2018-02-06T07:18:33.075Z,37.45
2018-02-06T07:20:59.536Z,36.35
2018-02-06T07:23:25.989Z,35.03
2018-02-06T07:25:53.165Z,32.30
2018-02-06T07:28:19.580Z,38.53
2018-02-06T07:30:45.977Z,45.67
2018-02-06T07:33:12.997Z,46.25
2018-02-06T07:35:39.445Z,45.67
2018-02-06T07:38:05.889Z,35.10
2018-02-06T07:40:32.293Z,38.47
2018-02-06T07:42:59.448Z,40.35
2018-02-06T07:45:25.888Z,41.20
2018-02-06T07:47:53.124Z,41.13
2018-02-06T07:50:19.665Z,33.22
2018-02-06T07:52:46.939Z,26.48
2018-02-06T07:55:14.135Z,22.70
2018-02-06T07:57:40.574Z,22.95
2018-02-06T08:00:06.986Z,24.12
2018-02-06T08:02:33.480Z,27.90
2018-02-06T08:05:00.638Z,35.42
2018-02-06T08:07:27.850Z,34.35
2018-02-06T08:09:54.575Z,32.58
2018-02-06T08:12:21.794Z,32.80
2018-02-06T08:14:48.322Z,20.55
2018-02-06T08:17:15.591Z,19.42
2018-02-06T08:19:42.791Z,18.92
2018-02-06T08:22:09.432Z,14.87
2018-02-06T08:24:35.886Z,14.87
2018-02-06T08:27:02.338Z,15.53
2018-02-06T08:29:28.812Z,16.12
2018-02-06T08:31:55.274Z,16.67
2018-02-06T08:34:21.807Z,16.30
2018-02-06T08:36:48.987Z,14.60
2018-02-06T08:39:15.423Z,15.20
2018-02-06T08:41:42.618Z,15.45
2018-02-06T08:44:09.167Z,14.85
2018-02-06T08:46:35.656Z,15.30
2018-02-06T08:49:02.181Z,16.30
2018-02-06T08:51:28.842Z,14.90
2018-02-06T08:53:55.281Z,14.80
2018-02-06T08:56:22.440Z,15.57
2018-02-06T08:58:48.857Z,15.23
2018-02-06T09:01:15.381Z,14.90
2018-02-06T09:03:41.942Z,15.30
2018-02-06T09:06:08.378Z,14.80
2018-02-06T09:08:34.852Z,15.93
2018-02-06T09:11:02.129Z,16.20
2018-02-06T09:13:28.626Z,14.60
2018-02-06T09:15:55.167Z,15.32
2018-02-06T09:18:21.703Z,14.23
2018-02-06T09:20:48.365Z,17.83
2018-02-06T09:23:16.045Z,20.08
2018-02-06T09:25:43.225Z,14.80
2018-02-06T09:28:09.673Z,13.30
2018-02-06T09:30:36.947Z,15.60
2018-02-06T09:33:04.294Z,16.05
2018-02-06T09:35:30.786Z,13.90
2018-02-06T09:37:57.339Z,14.30
2018-02-06T09:40:24.613Z,16.58
2018-02-06T09:42:51.051Z,16.17
2018-02-06T09:45:18.447Z,15.57
2018-02-06T09:47:45.640Z,14.63
2018-02-06T09:50:12.176Z,13.90
2018-02-06T09:52:39.452Z,17.23
2018-02-06T09:55:06.724Z,14.05
2018-02-06T09:57:34.511Z,25.77
2018-02-06T10:00:01.107Z,17.35
2018-02-06T10:02:27.729Z,14.02
2018-02-06T10:04:55.005Z,15.07
2018-02-06T10:07:22.277Z,16.02
2018-02-06T10:09:48.739Z,16.40
2018-02-06T10:12:16.092Z,15.25
2018-02-06T10:14:43.389Z,18.17
2018-02-06T10:17:09.828Z,18.60
2018-02-06T10:19:37.002Z,15.95
2018-02-06T10:22:04.169Z,16.50
2018-02-06T10:24:32.174Z,16.15
2018-02-06T10:26:59.449Z,17.60
2018-02-06T10:29:27.031Z,18.23
2018-02-06T10:31:53.518Z,17.10
2018-02-06T10:34:20.438Z,19.10
2018-02-06T10:36:47.831Z,17.70
2018-02-06T10:39:14.288Z,17.98
2018-02-06T10:41:41.739Z,18.45
2018-02-06T10:44:09.040Z,17.27
2018-02-06T10:46:36.315Z,63.55
2018-02-06T10:49:03.503Z,42.28
2018-02-06T10:51:29.938Z,34.28
2018-02-06T10:53:57.115Z,32.03
2018-02-06T10:56:24.393Z,37.47
2018-02-06T10:58:51.050Z,39.80
2018-02-06T11:01:17.454Z,35.92
2018-02-06T11:03:43.966Z,33.63
2018-02-06T11:06:10.419Z,39.70
2018-02-06T11:08:37.693Z,31.45
2018-02-06T11:11:04.459Z,32.03
2018-02-06T11:13:31.151Z,26.20
2018-02-06T11:15:57.676Z,28.23
2018-02-06T11:18:24.952Z,21.67
2018-02-06T11:20:52.136Z,19.58
2018-02-06T11:23:18.608Z,21.62
2018-02-06T11:25:45.954Z,18.25
2018-02-06T11:28:12.818Z,17.23
2018-02-06T11:30:39.377Z,17.50
2018-02-06T11:33:06.555Z,17.62
2018-02-06T11:35:34.283Z,16.98
2018-02-06T11:38:00.792Z,17.30
2018-02-06T11:40:27.948Z,16.60
2018-02-06T11:42:55.630Z,17.62
2018-02-06T11:45:22.038Z,16.98
2018-02-06T11:47:48.561Z,18.80
2018-02-06T11:50:16.807Z,17.27
2018-02-06T11:52:43.229Z,16.00
2018-02-06T11:55:09.697Z,18.05
2018-02-06T11:57:36.189Z,14.98
2018-02-06T12:00:03.413Z,14.70
2018-02-06T12:02:29.857Z,15.77
2018-02-06T12:04:56.223Z,15.63
2018-02-06T12:07:23.670Z,15.60
2018-02-06T12:09:50.927Z,17.10
2018-02-06T12:12:17.371Z,15.60
2018-02-06T12:14:44.555Z,15.07
2018-02-06T12:17:11.064Z,15.80
2018-02-06T12:19:39.038Z,15.90
2018-02-06T12:22:06.270Z,14.20
2018-02-06T12:24:32.765Z,15.70
2018-02-06T12:27:01.472Z,14.32
2018-02-06T12:29:27.928Z,14.27
2018-02-06T12:31:55.138Z,13.65
2018-02-06T12:34:21.659Z,14.93
2018-02-06T12:36:48.817Z,15.30
2018-02-06T12:39:15.942Z,14.35
2018-02-06T12:41:43.175Z,15.10
2018-02-06T12:44:10.552Z,14.30
2018-02-06T12:46:37.825Z,15.20
2018-02-06T12:49:04.328Z,15.23
2018-02-06T12:51:30.788Z,15.00
2018-02-06T12:53:57.194Z,14.57
2018-02-06T12:56:24.370Z,14.55
2018-02-06T12:58:50.827Z,16.60
2018-02-06T13:01:17.259Z,15.88
2018-02-06T13:03:43.639Z,15.45
2018-02-06T13:06:10.111Z,15.40
2018-02-06T13:08:36.607Z,16.27
2018-02-06T13:11:03.105Z,16.85
2018-02-06T13:13:29.527Z,17.02
2018-02-06T13:15:55.947Z,18.10
2018-02-06T13:18:22.370Z,17.70
2018-02-06T13:20:48.760Z,21.55
2018-02-06T13:23:15.981Z,20.73
2018-02-06T13:25:43.273Z,22.80
2018-02-06T13:28:10.545Z,19.90
2018-02-06T13:30:37.719Z,19.80
2018-02-06T13:33:04.638Z,21.00
2018-02-06T13:35:31.142Z,21.55
2018-02-06T13:50:26.161Z,23.17
2018-02-06T13:52:52.802Z,24.05
2018-02-06T13:55:19.976Z,24.23
2018-02-06T13:57:49.088Z,25.48
2018-02-06T14:00:15.567Z,24.42
2018-02-06T14:02:42.102Z,24.77
2018-02-06T14:05:09.306Z,24.90
2018-02-06T14:07:35.835Z,24.90
2018-02-06T14:10:06.191Z,26.95
2018-02-06T14:12:32.733Z,26.05
2018-02-06T14:14:59.915Z,26.65
2018-02-06T14:17:26.523Z,27.00
2018-02-06T14:19:53.022Z,27.10
2018-02-06T14:22:20.196Z,27.30
2018-02-06T14:24:46.646Z,29.35
2018-02-06T14:27:13.766Z,28.67
2018-02-06T14:29:40.477Z,28.40
2018-02-06T14:32:08.171Z,27.83
2018-02-06T14:34:34.572Z,27.58
2018-02-06T14:37:02.310Z,27.15
2018-02-06T14:39:28.765Z,27.70
2018-02-06T14:41:55.985Z,28.70
2018-02-06T14:44:22.492Z,28.40
2018-02-06T14:46:49.698Z,28.52
2018-02-06T14:49:16.065Z,27.30
2018-02-06T14:51:42.486Z,28.30
2018-02-06T14:54:08.933Z,28.02
2018-02-06T14:56:35.489Z,29.60
2018-02-06T14:59:02.689Z,30.15
2018-02-06T15:01:29.134Z,29.75
2018-02-06T15:03:55.566Z,29.92
2018-02-06T15:06:22.740Z,30.37
2018-02-06T15:08:50.038Z,29.50
2018-02-06T15:11:16.456Z,30.98
2018-02-06T15:13:42.873Z,31.63
2018-02-06T15:16:09.391Z,29.15
2018-02-06T15:18:36.605Z,30.40
2018-02-06T15:21:03.123Z,29.48
2018-02-06T15:23:30.394Z,31.23
2018-02-06T15:25:58.389Z,29.65
2018-02-06T15:28:24.862Z,30.77
2018-02-06T15:30:51.319Z,30.85
2018-02-06T15:33:18.771Z,31.67
2018-02-06T15:35:46.049Z,29.48
2018-02-06T15:38:13.327Z,32.53
2018-02-06T15:40:39.883Z,32.58
2018-02-06T15:43:07.157Z,31.92
2018-02-06T15:45:33.822Z,39.35
2018-02-06T15:48:00.380Z,32.50
2018-02-06T15:50:26.839Z,32.03
2018-02-06T15:52:53.393Z,37.22
2018-02-06T15:55:20.063Z,32.58
2018-02-06T15:57:46.561Z,41.10
2018-02-06T16:00:13.271Z,32.37
2018-02-06T16:02:40.443Z,32.50
2018-02-06T16:05:07.775Z,33.40
2018-02-06T16:07:34.192Z,32.83
2018-02-06T16:10:00.644Z,31.77
2018-02-06T16:12:27.337Z,31.75
2018-02-06T16:14:53.812Z,31.15
2018-02-06T16:17:20.277Z,32.95
2018-02-06T16:19:46.761Z,32.55
2018-02-06T16:22:13.933Z,31.60
2018-02-06T16:24:41.208Z,31.87
2018-02-06T16:27:08.634Z,33.72
2018-02-06T16:29:35.052Z,35.30
2018-02-06T16:32:01.514Z,34.80
2018-02-06T16:34:27.961Z,33.83
2018-02-06T16:36:54.545Z,34.38
2018-02-06T16:39:21.069Z,36.05
2018-02-06T16:41:50.081Z,34.95
2018-02-06T16:44:17.360Z,42.60
2018-02-06T16:46:44.584Z,34.90
2018-02-06T16:49:11.088Z,34.40
2018-02-06T16:51:38.330Z,33.75
2018-02-06T16:54:04.819Z,37.40
2018-02-06T16:56:32.254Z,37.00
2018-02-06T16:58:58.754Z,40.13
2018-02-06T17:01:25.887Z,245.40
2018-02-06T17:03:52.971Z,67.80
2018-02-06T17:06:19.451Z,174.68
2018-02-06T17:08:46.726Z,81.70
2018-02-06T17:11:14.004Z,39.53
2018-02-06T17:13:40.562Z,38.75
2018-02-06T17:16:07.939Z,47.40
2018-02-06T17:18:34.495Z,42.38
2018-02-06T17:21:01.051Z,38.53
2018-02-06T17:23:28.325Z,44.20
2018-02-06T17:25:55.517Z,51.00
2018-02-06T17:28:22.589Z,42.30
2018-02-06T17:30:49.128Z,43.78
2018-02-06T17:33:15.605Z,34.65
2018-02-06T17:35:41.990Z,35.45
2018-02-06T17:38:08.494Z,35.83
2018-02-06T17:40:35.649Z,32.90
2018-02-06T17:43:02.161Z,33.73
2018-02-06T17:45:28.594Z,31.95
2018-02-06T17:47:55.113Z,34.30
2018-02-06T17:50:23.020Z,34.90
2018-02-06T17:52:51.218Z,32.63
2018-02-06T17:55:18.368Z,33.28
2018-02-06T17:57:44.848Z,31.67
2018-02-06T18:00:12.126Z,31.52
2018-02-06T18:02:39.402Z,31.27
2018-02-06T18:05:06.161Z,31.00
2018-02-06T18:07:32.743Z,31.48
2018-02-06T18:09:59.234Z,29.70
2018-02-06T18:12:25.736Z,29.45
2018-02-06T18:14:53.520Z,28.30
2018-02-06T18:17:20.792Z,29.65
2018-02-06T18:19:48.067Z,28.75
2018-02-06T18:22:15.346Z,29.67
2018-02-06T18:24:41.818Z,28.95
2018-02-06T18:27:09.035Z,29.50
2018-02-06T18:29:36.247Z,29.35
2018-02-06T18:32:02.803Z,31.50
2018-02-06T18:34:29.941Z,29.85
2018-02-06T18:36:56.897Z,53.65
2018-02-06T18:39:23.308Z,32.97
2018-02-06T18:41:49.754Z,27.45
2018-02-06T18:44:16.975Z,36.13
2018-02-06T18:46:43.476Z,31.52
2018-02-06T18:49:10.649Z,26.48
2018-02-06T18:51:37.875Z,26.67
2018-02-06T18:54:04.336Z,26.27
2018-02-06T18:56:30.759Z,25.40
2018-02-06T18:58:57.174Z,27.40
2018-02-06T19:01:29.672Z,27.35
2018-02-06T19:03:58.023Z,25.70
2018-02-06T19:06:24.540Z,26.77
2018-02-06T19:08:51.761Z,23.80
2018-02-06T19:11:19.197Z,29.08
2018-02-06T19:13:45.605Z,28.70
2018-02-06T19:16:12.210Z,28.90
2018-02-06T19:18:38.609Z,29.40
2018-02-06T19:21:05.119Z,30.30
2018-02-06T19:23:31.538Z,34.45
2018-02-06T19:25:58.036Z,42.85
2018-02-06T19:28:24.566Z,97.03
2018-02-06T19:30:50.976Z,145.20
2018-02-06T19:33:17.373Z,104.90
2018-02-06T19:35:45.793Z,104.85
2018-02-06T19:38:13.073Z,120.13
2018-02-06T19:40:40.347Z,91.10
2018-02-06T19:43:07.517Z,82.70
2018-02-06T19:45:34.793Z,70.63
2018-02-06T19:48:02.069Z,90.55
2018-02-06T19:50:28.608Z,59.05
2018-02-06T19:52:55.821Z,66.85
2018-02-06T19:55:22.356Z,54.28
2018-02-06T19:57:48.914Z,58.13
2018-02-06T20:00:16.395Z,32.45
2018-02-06T20:02:43.668Z,38.42
2018-02-06T20:05:10.796Z,27.75
2018-02-06T20:07:37.300Z,25.23
2018-02-06T20:10:04.264Z,38.70
2018-02-06T20:12:32.032Z,24.20
2018-02-06T20:14:58.710Z,34.20
2018-02-06T20:17:25.269Z,42.42
2018-02-06T20:19:55.511Z,27.80
2018-02-06T20:22:22.700Z,31.40
2018-02-06T20:24:49.105Z,22.90
2018-02-06T20:27:16.359Z,22.45
2018-02-06T20:29:42.870Z,24.45
2018-02-06T20:32:09.840Z,22.62
2018-02-06T20:34:36.397Z,25.48
2018-02-06T20:37:03.057Z,26.67
2018-02-06T20:39:30.341Z,24.75
2018-02-06T20:41:56.789Z,23.20
2018-02-06T20:44:23.209Z,22.30
2018-02-06T20:46:49.669Z,23.05
2018-02-06T20:49:16.161Z,23.93
2018-02-06T20:51:42.694Z,24.58
2018-02-06T20:54:09.092Z,24.30
2018-02-06T20:56:35.498Z,23.75
2018-02-06T20:59:01.950Z,24.60
2018-02-06T21:01:28.407Z,22.65
2018-02-06T21:03:54.891Z,22.30
2018-02-06T21:06:22.058Z,23.48
2018-02-06T21:08:48.610Z,24.15
2018-02-06T21:11:15.062Z,25.10
2018-02-06T21:13:42.352Z,26.80
2018-02-06T21:16:08.910Z,24.70
2018-02-06T21:18:36.103Z,24.95
2018-02-06T21:21:02.587Z,24.48
2018-02-06T21:23:29.099Z,25.77
2018-02-06T21:25:55.661Z,27.35
2018-02-06T21:28:22.929Z,25.95
2018-02-06T21:30:50.173Z,24.17
2018-02-06T21:33:17.070Z,23.38
2018-02-06T21:35:44.240Z,24.58
2018-02-06T21:38:11.618Z,26.30
2018-02-06T21:40:38.893Z,28.15
2018-02-06T21:43:05.317Z,26.50
2018-02-06T21:45:33.339Z,25.53
2018-02-06T21:48:00.533Z,23.10
2018-02-06T21:50:26.944Z,23.05
2018-02-06T21:52:53.392Z,23.87
2018-02-06T21:55:19.924Z,24.48
2018-02-06T21:57:46.438Z,23.45
2018-02-06T22:00:17.616Z,23.80
2018-02-06T22:02:44.047Z,24.10
2018-02-06T22:05:11.203Z,23.25
2018-02-06T22:07:37.633Z,24.05
2018-02-06T22:10:04.841Z,24.98
2018-02-06T22:12:32.065Z,24.77
2018-02-06T22:14:58.509Z,23.83
2018-02-06T22:17:24.981Z,24.20
2018-02-06T22:19:51.398Z,24.07
2018-02-06T22:22:17.852Z,24.70
2018-02-06T22:24:44.222Z,25.05
2018-02-06T22:27:10.762Z,24.95
2018-02-06T22:29:38.039Z,24.10
2018-02-06T22:32:05.195Z,25.25
2018-02-06T22:34:32.363Z,25.35
2018-02-06T22:36:59.595Z,24.90
2018-02-06T22:39:26.115Z,24.10
2018-02-06T22:41:52.543Z,24.63
2018-02-06T22:44:18.958Z,24.87
2018-02-06T22:46:45.482Z,25.70
2018-02-06T22:49:11.940Z,24.30
2018-02-06T22:51:38.416Z,25.35
2018-02-06T22:54:05.053Z,25.58
2018-02-06T22:56:32.330Z,25.48
2018-02-06T22:58:59.503Z,25.77
2018-02-06T23:01:25.944Z,26.80
2018-02-06T23:03:53.116Z,26.25
2018-02-06T23:06:20.294Z,26.37
2018-02-06T23:08:47.448Z,26.00
2018-02-06T23:11:14.987Z,26.23
2018-02-06T23:13:42.275Z,26.85
2018-02-06T23:16:08.665Z,26.70
2018-02-06T23:18:35.959Z,26.55
2018-02-06T23:21:02.455Z,26.20
2018-02-06T23:23:28.972Z,26.10
2018-02-06T23:25:56.348Z,27.90
2018-02-06T23:28:22.798Z,26.50
2018-02-06T23:30:49.936Z,26.45
2018-02-06T23:33:17.501Z,26.25
2018-02-06T23:35:44.018Z,26.10
2018-02-06T23:38:10.451Z,26.55
2018-02-06T23:40:36.878Z,26.92
2018-02-06T23:43:03.381Z,27.30
2018-02-06T23:45:30.759Z,26.83
2018-02-06T23:47:57.950Z,26.80
2018-02-06T23:50:24.454Z,27.37
2018-02-06T23:52:50.910Z,27.25
2018-02-06T23:55:18.127Z,27.03
2018-02-06T23:57:44.639Z,26.93
